createdAt,value
2022-11-20T00:01:53.674Z,93441.19
2022-11-20T00:04:21.244Z,93438.75
2022-11-20T00:06:48.867Z,93444.19
2022-11-20T00:09:16.484Z,93440.69
2022-11-20T00:11:44.085Z,93443.66
2022-11-20T00:14:11.758Z,93439.63
2022-11-20T00:16:40.680Z,93440.44
2022-11-20T00:19:08.232Z,93447.25
2022-11-20T00:21:35.811Z,93451.88
2022-11-20T00:24:03.360Z,93453.78
2022-11-20T00:26:31.272Z,93452.97
2022-11-20T00:28:59.463Z,93448.94
2022-11-20T00:31:27.145Z,93451.91
2022-11-20T00:33:56.048Z,93450.31
2022-11-20T00:36:24.475Z,93452.22
2022-11-20T00:38:53.324Z,93453.31
2022-11-20T00:41:20.969Z,93457.94
2022-11-20T00:43:48.541Z,93466.88
2022-11-20T00:46:16.995Z,93460.94
2022-11-20T00:48:44.784Z,93468.25
2022-11-20T00:51:15.131Z,93460.13
2022-11-20T00:53:42.732Z,93468.25
2022-11-20T00:56:12.025Z,93470.16
2022-11-20T00:58:40.447Z,93468.50
2022-11-20T01:01:09.316Z,93477.75
2022-11-20T01:03:37.566Z,93473.13
2022-11-20T01:06:06.142Z,93477.22
2022-11-20T01:08:35.558Z,93475.59
2022-11-20T01:11:03.646Z,93487.28
2022-11-20T01:13:41.319Z,93480.25
2022-11-20T01:16:09.909Z,93487.56
2022-11-20T01:18:37.603Z,93483.22
2022-11-20T01:21:05.736Z,93485.94
2022-11-20T01:23:35.302Z,93489.75
2022-11-20T01:26:04.390Z,93483.50
2022-11-20T01:28:31.976Z,93488.94
2022-11-20T01:30:59.566Z,93489.22
2022-11-20T01:33:27.155Z,93482.19
2022-11-20T01:35:54.812Z,93490.34
2022-11-20T01:38:23.567Z,93485.19
2022-11-20T01:40:57.544Z,93487.91
2022-11-20T01:43:24.232Z,93482.47
2022-11-20T01:46:16.507Z,93492.53
2022-11-20T01:48:47.615Z,93485.44
2022-11-20T01:51:23.150Z,93491.69
2022-11-20T01:53:51.112Z,93495.50
2022-11-20T01:56:20.166Z,93492.81
2022-11-20T01:58:50.366Z,93500.94
2022-11-20T02:01:17.981Z,93497.13
2022-11-20T02:03:45.621Z,93499.00
2022-11-20T02:06:16.444Z,93495.50
2022-11-20T02:08:44.046Z,93497.41
2022-11-20T02:11:11.596Z,93500.13
2022-11-20T02:13:45.630Z,93499.31
2022-11-20T02:16:18.345Z,93497.72
2022-11-20T02:18:46.217Z,93491.97
2022-11-20T02:21:21.570Z,93489.00
2022-11-20T02:24:06.493Z,93491.69
2022-11-20T02:26:35.767Z,93491.44
2022-11-20T02:29:03.459Z,93486.78
2022-11-20T02:31:31.039Z,93482.19
2022-11-20T02:33:58.914Z,93483.81
2022-11-20T02:36:26.836Z,93481.38
2022-11-20T02:38:54.377Z,93482.72
2022-11-20T02:41:23.313Z,93476.47
2022-11-20T02:43:50.883Z,93480.78
2022-11-20T02:46:18.447Z,93481.88
2022-11-20T02:48:45.987Z,93482.72
2022-11-20T02:51:13.646Z,93486.22
2022-11-20T02:53:41.503Z,93478.09
2022-11-20T02:56:09.326Z,93493.56
2022-11-20T02:58:38.424Z,93493.56
2022-11-20T03:01:06.322Z,93488.94
2022-11-20T03:03:33.964Z,93480.00
2022-11-20T03:06:01.607Z,93492.47
2022-11-20T03:08:29.190Z,93490.53
2022-11-20T03:10:56.775Z,93488.94
2022-11-20T03:13:24.536Z,93488.94
2022-11-20T03:15:53.441Z,93487.84
2022-11-20T03:18:21.014Z,93484.31
2022-11-20T03:20:48.613Z,93484.31
2022-11-20T03:23:16.207Z,93481.63
2022-11-20T03:25:43.839Z,93485.13
2022-11-20T03:28:11.797Z,93484.31
2022-11-20T03:30:39.369Z,93484.31
2022-11-20T03:33:08.355Z,93487.84
2022-11-20T03:35:35.992Z,93480.00
2022-11-20T03:38:03.549Z,93481.63
2022-11-20T03:40:31.115Z,93480.78
2022-11-20T03:42:58.685Z,93482.72
2022-11-20T03:45:26.292Z,93485.44
2022-11-20T03:47:53.930Z,93485.44
2022-11-20T03:50:22.886Z,93490.84
2022-11-20T03:52:50.442Z,93491.94
2022-11-20T03:55:18.036Z,93494.66
2022-11-20T03:57:45.599Z,93494.66
2022-11-20T04:00:14.706Z,93493.56
2022-11-20T04:02:42.265Z,93493.84
2022-11-20T04:05:10.289Z,93499.25
2022-11-20T04:07:39.292Z,93501.19
2022-11-20T04:10:07.692Z,93491.13
2022-11-20T04:12:35.526Z,93487.63
2022-11-20T04:15:03.120Z,93479.47
2022-11-20T04:17:30.672Z,93484.91
2022-11-20T04:19:58.233Z,93484.91
2022-11-20T04:22:25.829Z,93484.09
2022-11-20T04:24:54.773Z,93475.94
2022-11-20T04:27:22.368Z,93482.19
2022-11-20T04:29:49.945Z,93480.56
2022-11-20T04:32:17.501Z,93478.66
2022-11-20T04:34:45.056Z,93481.69
2022-11-20T04:37:12.635Z,93480.56
2022-11-20T04:39:40.208Z,93479.75
2022-11-20T04:42:27.863Z,93478.97
2022-11-20T04:44:55.416Z,93482.47
2022-11-20T04:47:22.992Z,93484.38
2022-11-20T04:49:50.675Z,93482.75
2022-11-20T04:52:18.228Z,93478.41
2022-11-20T04:54:45.788Z,93488.47
2022-11-20T04:57:16.481Z,93483.84
2022-11-20T04:59:44.163Z,93475.69
2022-11-20T05:02:12.122Z,93484.66
2022-11-20T05:04:39.823Z,93489.25
2022-11-20T05:07:07.469Z,93486.56
2022-11-20T05:09:35.075Z,93491.19
2022-11-20T05:12:02.653Z,93481.13
2022-11-20T05:14:31.590Z,93490.34
2022-11-20T05:16:59.271Z,93485.75
2022-11-20T05:19:26.917Z,93484.94
2022-11-20T05:21:54.484Z,93483.84
2022-11-20T05:24:22.284Z,93490.34
2022-11-20T05:26:49.825Z,93490.34
2022-11-20T05:29:17.398Z,93480.59
2022-11-20T05:31:46.368Z,93484.16
2022-11-20T05:34:13.948Z,93486.03
2022-11-20T05:36:41.515Z,93483.31
2022-11-20T05:39:09.093Z,93489.84
2022-11-20T05:41:36.703Z,93490.66
2022-11-20T05:44:04.343Z,93500.69
2022-11-20T05:46:32.100Z,93498.81
2022-11-20T05:49:01.133Z,93494.16
2022-11-20T05:51:28.803Z,93496.09
2022-11-20T05:53:58.200Z,93500.69
2022-11-20T05:56:25.801Z,93494.47
2022-11-20T05:58:53.364Z,93499.06
2022-11-20T06:01:21.779Z,93489.84
2022-11-20T06:03:51.320Z,93495.28
2022-11-20T06:06:20.384Z,93492.03
2022-11-20T06:08:48.000Z,93493.66
2022-11-20T06:11:16.069Z,93496.38
2022-11-20T06:13:43.736Z,93492.84
2022-11-20T06:16:11.731Z,93495.56
2022-11-20T06:18:39.333Z,93496.63
2022-11-20T06:21:08.009Z,93502.88
2022-11-20T06:23:37.065Z,93494.22
2022-11-20T06:26:05.113Z,93497.47
2022-11-20T06:28:32.760Z,93504.78
2022-11-20T06:31:00.336Z,93507.47
2022-11-20T06:33:27.989Z,93506.69
2022-11-20T06:36:00.952Z,93509.41
2022-11-20T06:38:30.131Z,93511.28
2022-11-20T06:40:59.074Z,93507.78
2022-11-20T06:43:26.805Z,93516.72
2022-11-20T06:45:54.903Z,93514.00
2022-11-20T06:48:22.612Z,93520.25
2022-11-20T06:50:50.173Z,93513.22
2022-11-20T06:53:17.711Z,93514.31
2022-11-20T06:55:45.625Z,93519.72
2022-11-20T06:58:14.614Z,93534.38
2022-11-20T07:00:42.381Z,93537.09
2022-11-20T07:03:11.965Z,93539.00
2022-11-20T07:05:40.087Z,93537.09
2022-11-20T07:08:07.746Z,93533.56
2022-11-20T07:10:35.524Z,93534.38
2022-11-20T07:13:03.153Z,93543.63
2022-11-20T07:15:32.276Z,93536.59
2022-11-20T07:18:00.671Z,93531.16
2022-11-20T07:20:28.290Z,93537.38
2022-11-20T07:22:56.588Z,93531.44
2022-11-20T07:25:24.174Z,93530.59
2022-11-20T07:27:51.746Z,93533.31
2022-11-20T07:30:19.292Z,93541.44
2022-11-20T07:32:49.743Z,93532.53
2022-11-20T07:35:17.319Z,93545.25
2022-11-20T07:37:46.587Z,93545.25
2022-11-20T07:40:14.241Z,93543.13
2022-11-20T07:42:44.112Z,93542.03
2022-11-20T07:45:12.044Z,93543.94
2022-11-20T07:47:40.005Z,93546.66
2022-11-20T07:50:10.287Z,93551.25
2022-11-20T07:52:37.956Z,93553.69
2022-11-20T07:55:06.204Z,93553.97
2022-11-20T07:57:33.785Z,93554.50
2022-11-20T08:00:01.442Z,93556.69
2022-11-20T08:02:29.159Z,93553.97
2022-11-20T08:04:56.731Z,93554.78
2022-11-20T08:07:25.781Z,93560.22
2022-11-20T08:09:53.367Z,93546.94
2022-11-20T08:12:38.992Z,93555.59
2022-11-20T08:15:12.770Z,93545.84
2022-11-20T08:17:40.559Z,93545.56
2022-11-20T08:20:08.979Z,93543.13
2022-11-20T08:22:37.954Z,93540.41
2022-11-20T08:25:06.404Z,93547.44
2022-11-20T08:27:34.120Z,93544.75
2022-11-20T08:30:01.722Z,93549.38
2022-11-20T08:32:29.339Z,93551.78
2022-11-20T08:34:56.893Z,93552.88
2022-11-20T08:37:24.444Z,93552.06
2022-11-20T08:39:54.479Z,93554.78
2022-11-20T08:42:22.028Z,93553.19
2022-11-20T08:44:49.822Z,93552.06
2022-11-20T08:47:17.488Z,93545.84
2022-11-20T08:49:45.093Z,93554.78
2022-11-20T08:52:13.008Z,93551.25
2022-11-20T08:54:41.051Z,93549.38
2022-11-20T08:57:10.433Z,93554.78
2022-11-20T09:00:04.957Z,93550.16
2022-11-20T09:02:26.074Z,93552.88
2022-11-20T09:04:54.232Z,93550.16
2022-11-20T09:07:22.094Z,93551.00
2022-11-20T09:10:09.730Z,93551.78
2022-11-20T09:12:38.736Z,93553.41
2022-11-20T09:15:07.164Z,93553.41
2022-11-20T09:17:34.964Z,93542.53
2022-11-20T09:20:02.596Z,93551.19
2022-11-20T09:22:30.151Z,93543.63
2022-11-20T09:24:57.698Z,93544.94
2022-11-20T09:27:25.283Z,93557.41
2022-11-20T09:29:54.235Z,93549.25
2022-11-20T09:32:21.802Z,93549.00
2022-11-20T09:34:49.381Z,93547.09
2022-11-20T09:37:16.968Z,93537.56
2022-11-20T09:39:44.611Z,93539.19
2022-11-20T09:42:33.076Z,93543.25
2022-11-20T09:45:10.916Z,93543.75
2022-11-20T09:47:46.301Z,93546.19
2022-11-20T09:50:22.080Z,93539.38
2022-11-20T09:52:54.351Z,93533.69
2022-11-20T09:55:22.344Z,93540.72
2022-11-20T09:57:50.511Z,93527.16
2022-11-20T10:00:22.052Z,93530.97
2022-11-20T10:02:50.965Z,93532.59
2022-11-20T10:05:20.662Z,93533.41
2022-11-20T10:07:50.890Z,93524.16
2022-11-20T10:10:19.239Z,93530.38
2022-11-20T10:12:56.717Z,93526.56
2022-11-20T10:15:30.219Z,93526.56
2022-11-20T10:18:05.103Z,93527.41
2022-11-20T10:20:37.769Z,93532.00
2022-11-20T10:23:15.251Z,93534.72
2022-11-20T10:25:45.396Z,93541.25
2022-11-20T10:28:22.476Z,93541.25
2022-11-20T10:30:53.850Z,93546.97
2022-11-20T10:33:23.381Z,93542.63
2022-11-20T10:35:52.940Z,93548.84
2022-11-20T10:38:22.856Z,93541.81
2022-11-20T10:40:51.388Z,93550.22
2022-11-20T10:43:20.385Z,93551.06
2022-11-20T10:45:54.160Z,93546.72
2022-11-20T10:48:23.048Z,93542.09
2022-11-20T10:51:01.488Z,93538.59
2022-11-20T10:53:38.813Z,93531.25
2022-11-20T10:56:07.941Z,93534.78
2022-11-20T10:58:38.399Z,93528.53
2022-11-20T11:01:07.690Z,93530.44
2022-11-20T11:03:35.280Z,93530.16
2022-11-20T11:06:05.939Z,93531.25
2022-11-20T11:08:36.400Z,93527.72
2022-11-20T11:11:09.260Z,93530.44
2022-11-20T11:13:36.855Z,93524.19
2022-11-20T11:16:04.711Z,93527.72
2022-11-20T11:18:34.606Z,93516.88
2022-11-20T11:21:03.216Z,93521.47
2022-11-20T11:23:35.959Z,93516.88
2022-11-20T11:26:04.617Z,93514.16
2022-11-20T11:28:32.710Z,93516.38
2022-11-20T11:31:00.381Z,93518.25
2022-11-20T11:33:28.913Z,93512.56
2022-11-20T11:35:59.143Z,93509.00
2022-11-20T11:38:31.674Z,93506.59
2022-11-20T11:40:59.290Z,93506.88
2022-11-20T11:43:45.262Z,93511.50
2022-11-20T11:46:33.481Z,93506.38
2022-11-20T11:49:02.189Z,93513.41
2022-11-20T11:51:34.999Z,93508.25
2022-11-20T11:54:02.903Z,93506.63
2022-11-20T11:56:30.599Z,93517.22
2022-11-20T11:59:00.434Z,93510.97
2022-11-20T12:01:30.160Z,93514.50
2022-11-20T12:04:01.884Z,93520.44
2022-11-20T12:06:30.858Z,93514.44
2022-11-20T12:09:00.965Z,93507.13
2022-11-20T12:11:33.191Z,93506.03
2022-11-20T12:14:05.107Z,93503.31
2022-11-20T12:16:32.853Z,93499.06
2022-11-20T12:19:00.434Z,93490.69
2022-11-20T12:21:32.705Z,93501.00
2022-11-20T12:24:16.244Z,93496.75
2022-11-20T12:26:53.720Z,93501.75
2022-11-20T12:29:26.312Z,93488.28
2022-11-20T12:32:01.307Z,93491.41
2022-11-20T12:34:45.318Z,93492.44
2022-11-20T12:37:18.208Z,93496.13
2022-11-20T12:39:48.800Z,93486.88
2022-11-20T12:43:00.660Z,93490.63
2022-11-20T12:45:36.064Z,93491.97
2022-11-20T12:48:19.691Z,93496.00
2022-11-20T12:51:13.891Z,93495.47
2022-11-20T12:53:43.524Z,93494.88
2022-11-20T12:56:18.864Z,93490.25
2022-11-20T12:59:12.968Z,93488.09
2022-11-20T13:01:43.588Z,93487.28
2022-11-20T13:04:18.954Z,93489.94
2022-11-20T13:06:46.633Z,93474.41
2022-11-20T13:09:15.495Z,93479.25
2022-11-20T13:11:46.536Z,93475.91
2022-11-20T13:14:20.219Z,93478.84
2022-11-20T13:16:50.581Z,93470.06
2022-11-20T13:19:18.787Z,93477.56
2022-11-20T13:21:47.530Z,93467.47
2022-11-20T13:24:27.310Z,93466.03
2022-11-20T13:27:21.112Z,93460.75
2022-11-20T13:29:49.256Z,93457.69
2022-11-20T13:32:17.855Z,93458.72
2022-11-20T13:34:56.988Z,93459.19
2022-11-20T13:37:29.886Z,93457.50
2022-11-20T13:40:08.108Z,93452.56
2022-11-20T13:42:38.000Z,93459.84
2022-11-20T13:45:11.544Z,93461.47
2022-11-20T13:47:39.168Z,93482.31
2022-11-20T13:50:07.217Z,93466.53
2022-11-20T13:52:42.255Z,93455.69
2022-11-20T13:55:15.611Z,93451.34
2022-11-20T13:58:08.054Z,93445.03
2022-11-20T14:00:35.699Z,93437.63
2022-11-20T14:03:09.387Z,93448.50
2022-11-20T14:05:38.880Z,93442.25
2022-11-20T14:08:07.164Z,93439.53
2022-11-20T14:10:34.753Z,93439.75
2022-11-20T14:13:13.160Z,93440.25
2022-11-20T14:15:44.854Z,93443.53
2022-11-20T14:18:14.456Z,93440.53
2022-11-20T14:20:42.119Z,93440.75
2022-11-20T14:23:11.257Z,93437.44
2022-11-20T14:25:38.935Z,93437.94
2022-11-20T14:28:06.509Z,93445.50
2022-11-20T14:30:41.318Z,93444.13
2022-11-20T14:33:08.986Z,93437.28
2022-11-20T14:35:39.368Z,93438.63
2022-11-20T14:38:10.146Z,93441.84
2022-11-20T14:40:37.888Z,93433.88
2022-11-20T14:43:18.780Z,93433.31
2022-11-20T14:45:48.124Z,93436.53
2022-11-20T14:48:15.732Z,93433.22
2022-11-20T14:50:43.355Z,93433.44
2022-11-20T14:53:11.003Z,93432.84
2022-11-20T14:55:40.465Z,93433.84
2022-11-20T14:58:09.162Z,93426.22
2022-11-20T15:00:38.024Z,93428.63
2022-11-20T15:03:17.148Z,93431.97
2022-11-20T15:05:48.604Z,93438.56
2022-11-20T15:08:16.529Z,93441.28
2022-11-20T15:10:47.811Z,93440.78
2022-11-20T15:13:16.937Z,93440.78
2022-11-20T15:15:46.364Z,93432.94
2022-11-20T15:18:16.575Z,93439.66
2022-11-20T15:20:44.182Z,93431.50
2022-11-20T15:23:12.876Z,93429.63
2022-11-20T15:25:40.692Z,93429.31
2022-11-20T15:28:14.028Z,93430.63
2022-11-20T15:30:41.660Z,93428.72
2022-11-20T15:33:10.058Z,93427.41
2022-11-20T15:35:39.043Z,93423.06
2022-11-20T15:38:06.648Z,93428.22
2022-11-20T15:40:34.208Z,93423.06
2022-11-20T15:43:09.679Z,93430.94
2022-11-20T15:45:41.609Z,93424.19
2022-11-20T15:48:12.053Z,93431.44
2022-11-20T15:50:43.183Z,93424.69
2022-11-20T15:53:11.521Z,93426.03
2022-11-20T15:55:39.095Z,93427.91
2022-11-20T15:58:06.691Z,93435.47
2022-11-20T16:00:34.442Z,93433.56
2022-11-20T16:03:02.029Z,93428.13
2022-11-20T16:05:30.350Z,93430.56
2022-11-20T16:07:59.421Z,93423.19
2022-11-20T16:10:27.085Z,93421.59
2022-11-20T16:13:12.215Z,93409.69
2022-11-20T16:15:48.915Z,93407.56
2022-11-20T16:18:18.299Z,93406.16
2022-11-20T16:20:46.268Z,93396.19
2022-11-20T16:23:16.363Z,93399.00
2022-11-20T16:25:43.926Z,93391.72
2022-11-20T16:28:16.002Z,93392.31
2022-11-20T16:30:46.696Z,93386.16
2022-11-20T16:33:15.466Z,93396.00
2022-11-20T16:35:43.144Z,93392.25
2022-11-20T16:38:10.756Z,93383.09
2022-11-20T16:40:39.702Z,93380.47
2022-11-20T16:43:10.955Z,93384.56
2022-11-20T16:45:42.405Z,93381.09
2022-11-20T16:48:13.634Z,93377.03
2022-11-20T16:50:47.087Z,93376.84
2022-11-20T16:53:14.736Z,93378.22
2022-11-20T16:55:43.692Z,93378.50
2022-11-20T16:58:11.271Z,93376.41
2022-11-20T17:00:38.846Z,93376.41
2022-11-20T17:03:06.780Z,93372.06
2022-11-20T17:05:34.618Z,93363.19
2022-11-20T17:08:02.727Z,93358.72
2022-11-20T17:10:30.299Z,93356.97
2022-11-20T17:12:59.231Z,93354.97
2022-11-20T17:15:26.831Z,93351.03
2022-11-20T17:17:54.425Z,93355.72
2022-11-20T17:20:22.011Z,93358.75
2022-11-20T17:22:49.763Z,93361.16
2022-11-20T17:25:17.401Z,93360.56
2022-11-20T17:27:45.024Z,93361.38
2022-11-20T17:30:14.408Z,93363.59
2022-11-20T17:32:47.016Z,93363.59
2022-11-20T17:35:14.998Z,93361.97
2022-11-20T17:37:42.607Z,93367.69
2022-11-20T17:40:10.701Z,93368.78
2022-11-20T17:42:38.283Z,93355.50
2022-11-20T17:45:06.649Z,93361.22
2022-11-20T17:47:37.775Z,93364.22
2022-11-20T17:50:06.129Z,93360.72
2022-11-20T17:52:33.696Z,93359.91
2022-11-20T17:55:01.334Z,93355.56
2022-11-20T17:57:46.374Z,93347.75
2022-11-20T18:00:16.492Z,93351.00
2022-11-20T18:02:46.071Z,93340.47
2022-11-20T18:05:13.715Z,93338.03
2022-11-20T18:07:42.101Z,93337.22
2022-11-20T18:10:10.437Z,93341.00
2022-11-20T18:12:38.092Z,93333.69
2022-11-20T18:15:06.245Z,93337.78
2022-11-20T18:17:34.904Z,93340.47
2022-11-20T18:22:51.595Z,93331.03
2022-11-20T18:25:19.296Z,93328.31
2022-11-20T18:27:46.989Z,93326.72
2022-11-20T18:30:15.868Z,93313.16
2022-11-20T18:32:43.649Z,93309.91
2022-11-20T18:35:12.760Z,93307.50
2022-11-20T18:37:40.815Z,93298.53
2022-11-20T18:40:10.052Z,93292.31
2022-11-20T18:42:55.738Z,93294.53
2022-11-20T18:45:23.345Z,93290.16
2022-11-20T18:47:51.831Z,93290.16
2022-11-20T18:50:22.561Z,93285.56
2022-11-20T18:52:50.898Z,93283.13
2022-11-20T18:55:18.592Z,93288.56
2022-11-20T18:57:46.745Z,93288.56
2022-11-20T19:00:15.015Z,93282.34
2022-11-20T19:02:43.554Z,93278.81
2022-11-20T19:05:11.870Z,93273.38
2022-11-20T19:07:41.140Z,93268.78
2022-11-20T19:10:09.139Z,93271.47
2022-11-20T19:12:36.913Z,93272.59
2022-11-20T19:15:04.710Z,93275.28
2022-11-20T19:17:33.881Z,93270.16
2022-11-20T19:20:01.481Z,93274.47
2022-11-20T19:22:29.119Z,93275.28
2022-11-20T19:24:58.054Z,93270.66
2022-11-20T19:27:25.638Z,93259.31
2022-11-20T19:29:53.292Z,93268.25
2022-11-20T19:32:20.897Z,93264.72
2022-11-20T19:34:48.532Z,93267.75
2022-11-20T19:37:16.137Z,93259.31
2022-11-20T19:39:43.719Z,93268.78
2022-11-20T19:42:12.669Z,93263.13
2022-11-20T19:44:40.235Z,93262.38
2022-11-20T19:47:14.082Z,93261.34
2022-11-20T19:49:42.259Z,93267.13
2022-11-20T19:52:09.856Z,93270.84
2022-11-20T19:54:37.425Z,93267.56
2022-11-20T19:57:05.020Z,93262.69
2022-11-20T19:59:33.993Z,93256.94
2022-11-20T20:02:03.179Z,93255.84
2022-11-20T20:04:30.952Z,93248.81
2022-11-20T20:06:58.678Z,93248.03
2022-11-20T20:09:27.000Z,93243.69
2022-11-20T20:11:54.704Z,93233.91
2022-11-20T20:14:22.323Z,93235.03
2022-11-20T20:16:51.282Z,93230.69
2022-11-20T20:19:18.862Z,93228.81
2022-11-20T20:21:47.798Z,93229.91
2022-11-20T20:24:15.387Z,93229.91
2022-11-20T20:26:43.185Z,93231.78
2022-11-20T20:29:10.777Z,93225.59
2022-11-20T20:31:38.366Z,93222.88
2022-11-20T20:34:07.430Z,93227.47
2022-11-20T20:36:35.054Z,93225.84
2022-11-20T20:39:03.335Z,93219.66
2022-11-20T20:41:31.266Z,93226.97
2022-11-20T20:44:16.259Z,93227.78
2022-11-20T20:46:43.886Z,93226.69
2022-11-20T20:49:12.899Z,93223.97
2022-11-20T20:51:40.537Z,93223.97
2022-11-20T20:54:08.175Z,93227.19
2022-11-20T20:56:35.723Z,93228.28
2022-11-20T20:59:04.348Z,93229.09
2022-11-20T21:01:32.051Z,93254.31
2022-11-20T21:03:59.752Z,93257.81
2022-11-20T21:06:28.666Z,93261.34
2022-11-20T21:08:58.379Z,93262.97
2022-11-20T21:11:25.940Z,93265.41
2022-11-20T21:13:53.545Z,93266.19
2022-11-20T21:16:22.306Z,93265.91
2022-11-20T21:18:50.208Z,93268.63
2022-11-20T21:21:35.393Z,93263.97
2022-11-20T21:24:04.512Z,93252.34
2022-11-20T21:26:32.127Z,93255.84
2022-11-20T21:28:59.698Z,93254.75
2022-11-20T21:31:28.396Z,93239.56
2022-11-20T21:33:56.866Z,93241.19
2022-11-20T21:36:25.252Z,93240.41
2022-11-20T21:38:53.854Z,93238.47
2022-11-20T21:41:23.126Z,93242.78
2022-11-20T21:44:16.018Z,93243.91
2022-11-20T21:46:40.210Z,93241.19
2022-11-20T21:49:07.924Z,93248.53
2022-11-20T21:51:35.511Z,93236.88
2022-11-20T21:54:03.103Z,93248.53
2022-11-20T21:56:32.101Z,93246.63
2022-11-20T21:58:59.702Z,93246.63
2022-11-20T22:01:28.085Z,93250.16
2022-11-20T22:03:57.039Z,93253.94
2022-11-20T22:06:24.813Z,93246.91
2022-11-20T22:08:52.399Z,93240.41
2022-11-20T22:11:20.824Z,93260.16
2022-11-20T22:14:07.440Z,93253.13
2022-11-20T22:16:41.145Z,93253.13
2022-11-20T22:19:08.934Z,93245.81
2022-11-20T22:21:36.564Z,93246.91
2022-11-20T22:24:04.365Z,93247.72
2022-11-20T22:26:39.661Z,93249.63
2022-11-20T22:29:09.518Z,93260.16
2022-11-20T22:31:37.140Z,93261.28
2022-11-20T22:34:04.797Z,93248.81
2022-11-20T22:36:32.802Z,93256.94
2022-11-20T22:39:00.417Z,93265.09
2022-11-20T22:41:28.727Z,93268.63
2022-11-20T22:43:56.867Z,93263.19
2022-11-20T22:46:26.172Z,93267.78
2022-11-20T22:48:54.980Z,93268.63
2022-11-20T22:51:23.467Z,93266.19
2022-11-20T22:53:51.288Z,93275.13
2022-11-20T22:56:18.918Z,93285.16
2022-11-20T22:58:47.270Z,93273.53
2022-11-20T23:01:15.747Z,93266.19
2022-11-20T23:03:45.393Z,93277.31
2022-11-20T23:06:13.220Z,93277.31
2022-11-20T23:08:41.466Z,93273.53
2022-11-20T23:11:09.866Z,93277.31
2022-11-20T23:13:37.576Z,93285.16
2022-11-20T23:16:06.396Z,93289.78
2022-11-20T23:18:34.625Z,93287.09
2022-11-20T23:21:06.546Z,93287.88
2022-11-20T23:23:35.341Z,93269.16
2022-11-20T23:26:03.120Z,93268.09
2022-11-20T23:28:30.704Z,93270.81
2022-11-20T23:30:58.279Z,93273.81
2022-11-20T23:33:25.907Z,93271.88
2022-11-20T23:35:53.492Z,93267.56
2022-11-20T23:38:22.581Z,93264.84
2022-11-20T23:40:50.216Z,93256.72
2022-11-20T23:43:17.828Z,93257.81
2022-11-20T23:45:45.765Z,93260.53
2022-11-20T23:48:13.500Z,93255.91
2022-11-20T23:50:41.196Z,93264.84
2022-11-20T23:53:08.835Z,93258.63
2022-11-20T23:55:37.865Z,93260.53
2022-11-20T23:58:05.622Z,93266.78
